Time;durP1;ratioP1;P1;durP2;ratioP2;P2;SDS_P1;SDS_P2;PMS_P1;PMS_P2;Temp;Humidity;BMP_temperature;BMP_pressure;BME280_temperature;BME280_humidity;BME280_pressure;Samples;Min_cycle;Max_cycle;Signal;HPM_P1;HPM_P2
2021/03/10 00:01:58;;;;;;;3.33;2.50;;;21.80;30.00;;;;;;5033554;28;20399;-58
2021/03/10 00:04:23;;;;;;;3.07;2.30;;;21.80;30.00;;;;;;5033278;28;20465;-57
2021/03/10 00:06:49;;;;;;;2.65;2.22;;;21.80;30.00;;;;;;5048572;28;20941;-58
2021/03/10 00:09:15;;;;;;;3.23;2.10;;;21.80;30.00;;;;;;5033381;28;20466;-57
2021/03/10 00:11:40;;;;;;;2.67;2.20;;;21.80;30.00;;;;;;5033377;28;20437;-57
2021/03/10 00:14:06;;;;;;;3.00;2.33;;;21.80;30.00;;;;;;5033320;28;20457;-58
2021/03/10 00:16:32;;;;;;;2.10;1.90;;;21.80;30.00;;;;;;5032774;28;20398;-58
2021/03/10 00:18:57;;;;;;;2.47;2.10;;;21.80;30.00;;;;;;5033563;28;20802;-58
2021/03/10 00:21:23;;;;;;;2.50;2.22;;;21.70;30.00;;;;;;5033008;28;20942;-58
2021/03/10 00:23:49;;;;;;;3.00;2.30;;;21.70;30.00;;;;;;5032897;28;20380;-57
2021/03/10 00:26:15;;;;;;;2.30;1.93;;;21.70;30.00;;;;;;5033047;28;20806;-57
2021/03/10 00:28:40;;;;;;;2.47;1.90;;;21.70;30.00;;;;;;5032410;28;20737;-57
2021/03/10 00:31:06;;;;;;;2.73;2.10;;;21.70;30.00;;;;;;5032832;28;20411;-57
2021/03/10 00:33:31;;;;;;;2.40;1.95;;;21.70;30.00;;;;;;5032748;28;20384;-58
2021/03/10 00:35:57;;;;;;;2.83;2.10;;;21.70;29.90;;;;;;5032884;28;20402;-57
2021/03/10 00:38:23;;;;;;;2.60;2.05;;;21.70;30.00;;;;;;5032338;28;20383;-58
2021/03/10 00:40:49;;;;;;;2.33;2.05;;;21.70;30.00;;;;;;5032040;28;20403;-58
2021/03/10 00:43:14;;;;;;;2.33;2.00;;;21.70;30.00;;;;;;5032742;28;20379;-57
2021/03/10 00:45:40;;;;;;;2.50;2.10;;;21.70;30.00;;;;;;5032469;28;20391;-57
2021/03/10 00:48:06;;;;;;;2.58;2.33;;;21.70;30.00;;;;;;5032742;28;20421;-57
2021/03/10 00:50:32;;;;;;;2.22;1.98;;;21.70;30.00;;;;;;5031845;28;20533;-57
2021/03/10 00:52:58;;;;;;;2.20;2.00;;;21.60;29.90;;;;;;5032605;28;20398;-59
2021/03/10 00:55:23;;;;;;;2.10;1.90;;;21.70;29.90;;;;;;5032435;28;20395;-58
2021/03/10 00:57:49;;;;;;;2.47;1.85;;;21.70;30.00;;;;;;5032524;28;20482;-57
2021/03/10 01:00:17;;;;;;;2.70;1.77;;;21.60;29.90;;;;;;5032438;28;20470;-59
2021/03/10 01:02:42;;;;;;;2.20;1.88;;;21.60;29.90;;;;;;5031779;28;20399;-58
2021/03/10 01:05:09;;;;;;;2.13;1.93;;;21.60;29.90;;;;;;5032179;28;20445;-57
2021/03/10 01:07:34;;;;;;;2.40;2.10;;;21.60;29.90;;;;;;5032229;28;20383;-57
2021/03/10 01:10:02;;;;;;;2.80;2.03;;;21.60;29.90;;;;;;5032188;28;20423;-57
2021/03/10 01:12:28;;;;;;;2.03;1.77;;;21.60;29.90;;;;;;5031695;28;20478;-57
2021/03/10 01:14:54;;;;;;;2.27;1.90;;;21.60;29.90;;;;;;5032142;28;20482;-57
2021/03/10 01:17:19;;;;;;;2.20;2.00;;;21.60;29.90;;;;;;5032175;28;20422;-57
2021/03/10 01:19:45;;;;;;;1.93;1.70;;;21.60;29.90;;;;;;5032042;28;20391;-57
2021/03/10 01:22:10;;;;;;;2.45;1.95;;;21.60;29.90;;;;;;5032027;28;20383;-57
2021/03/10 01:24:36;;;;;;;2.23;1.93;;;21.50;29.90;;;;;;5031236;28;20520;-57
2021/03/10 01:27:02;;;;;;;2.15;1.80;;;21.50;29.90;;;;;;5032013;28;20387;-57
2021/03/10 01:29:28;;;;;;;2.13;1.80;;;21.60;29.90;;;;;;5031805;28;20429;-57
2021/03/10 01:31:53;;;;;;;2.20;2.00;;;21.60;29.90;;;;;;5031065;28;20410;-57
2021/03/10 01:34:19;;;;;;;2.17;1.80;;;21.50;29.90;;;;;;5031821;28;20403;-57
2021/03/10 01:36:44;;;;;;;2.50;2.00;;;21.50;29.80;;;;;;5031333;28;20391;-57
2021/03/10 01:39:10;;;;;;;2.00;1.80;;;21.50;29.90;;;;;;5031756;28;20725;-57
2021/03/10 01:41:36;;;;;;;2.60;2.00;;;21.50;29.80;;;;;;5031725;28;20469;-58
2021/03/10 01:44:02;;;;;;;2.30;1.90;;;21.50;29.80;;;;;;5031746;28;20527;-57
2021/03/10 01:46:40;;;;;;;2.10;1.90;;;21.50;29.80;;;;;;5031232;28;20474;-58
2021/03/10 01:49:07;;;;;;;2.10;1.80;;;21.50;29.80;;;;;;5031729;28;20422;-57
2021/03/10 01:51:33;;;;;;;2.05;1.80;;;21.50;29.80;;;;;;5031503;28;20396;-57
2021/03/10 01:53:59;;;;;;;2.00;1.80;;;21.50;29.80;;;;;;5030366;28;20729;-58
2021/03/10 01:56:26;;;;;;;2.30;1.98;;;21.50;29.80;;;;;;5031219;28;20437;-57
2021/03/10 01:58:53;;;;;;;2.45;1.90;;;21.50;29.80;;;;;;5031238;28;20383;-57
2021/03/10 02:01:20;;;;;;;2.10;1.85;;;21.50;29.80;;;;;;5031493;28;20387;-57
2021/03/10 02:03:46;;;;;;;2.10;1.80;;;21.50;29.80;;;;;;5031491;28;20934;-58
2021/03/10 02:06:22;;;;;;;2.00;1.80;;;21.50;29.90;;;;;;5031484;28;20490;-57
2021/03/10 02:09:01;;;;;;;2.00;1.80;;;21.50;29.90;;;;;;5030424;28;20495;-57
2021/03/10 02:11:39;;;;;;;2.45;2.08;;;21.50;29.90;;;;;;5030809;28;20399;-58
2021/03/10 02:14:33;;;;;;;2.22;1.90;;;21.50;29.90;;;;;;5031146;28;20384;-57
2021/03/10 02:17:04;;;;;;;2.00;1.80;;;21.40;29.80;;;;;;5031222;28;20431;-57
2021/03/10 02:20:02;;;;;;;2.10;1.80;;;21.40;29.80;;;;;;5031018;28;20383;-58
2021/03/10 02:22:48;;;;;;;2.20;1.70;;;21.40;29.90;;;;;;5027671;28;20807;-57
2021/03/10 02:25:43;;;;;;;1.90;1.70;;;21.40;29.80;;;;;;5030631;28;20413;-57
2021/03/10 02:28:10;;;;;;;2.20;1.90;;;21.40;29.80;;;;;;5027490;28;20540;-57
2021/03/10 02:30:42;;;;;;;2.13;1.90;;;21.40;29.80;;;;;;5030441;28;20414;-57
2021/03/10 02:33:16;;;;;;;2.05;1.73;;;21.40;29.80;;;;;;5031449;28;20453;-57
2021/03/10 02:35:45;;;;;;;2.38;1.90;;;21.40;29.90;;;;;;5030919;28;20402;-58
2021/03/10 02:38:15;;;;;;;2.40;2.00;;;21.40;29.90;;;;;;5031079;28;20401;-58
2021/03/10 02:40:41;;;;;;;2.28;2.00;;;21.40;29.80;;;;;;5030533;28;20403;-57
2021/03/10 02:43:09;;;;;;;1.88;1.67;;;21.40;29.80;;;;;;5031167;28;20395;-57
2021/03/10 02:45:35;;;;;;;2.40;1.90;;;21.40;29.80;;;;;;5033077;28;20803;-57
2021/03/10 02:48:02;;;;;;;2.63;1.90;;;21.40;29.80;;;;;;5034926;28;20440;-58
2021/03/10 02:50:28;;;;;;;2.50;1.88;;;21.40;29.80;;;;;;5034421;28;20418;-58
2021/03/10 02:52:56;;;;;;;2.00;1.70;;;21.30;29.80;;;;;;5034676;28;20383;-57
2021/03/10 02:55:22;;;;;;;2.00;1.80;;;21.30;29.80;;;;;;5034708;28;20398;-58
2021/03/10 02:57:48;;;;;;;2.08;1.80;;;21.40;29.90;;;;;;5034718;28;20395;-57
2021/03/10 03:00:21;;;;;;;2.35;1.90;;;21.40;29.80;;;;;;5034507;28;20489;-57
2021/03/10 03:02:47;;;;;;;1.80;1.60;;;21.30;29.80;;;;;;5034206;28;20882;-57
2021/03/10 03:05:13;;;;;;;2.22;1.90;;;21.30;29.80;;;;;;5034709;28;20399;-57
2021/03/10 03:07:41;;;;;;;2.00;1.70;;;21.40;29.80;;;;;;5034523;28;20376;-58
2021/03/10 03:10:09;;;;;;;2.58;2.08;;;21.30;29.80;;;;;;5034456;28;20508;-57
2021/03/10 03:12:35;;;;;;;1.90;1.70;;;21.40;29.80;;;;;;5033933;28;20442;-57
2021/03/10 03:15:03;;;;;;;1.98;1.70;;;21.30;29.80;;;;;;5034392;28;20399;-57
2021/03/10 03:17:32;;;;;;;2.10;1.90;;;21.30;29.80;;;;;;5034286;28;20395;-58
2021/03/10 03:19:58;;;;;;;2.22;1.90;;;21.30;29.80;;;;;;5034223;28;20759;-59
2021/03/10 03:22:25;;;;;;;2.03;1.80;;;21.30;29.80;;;;;;5034151;28;20387;-57
2021/03/10 03:24:53;;;;;;;2.00;1.70;;;21.30;29.70;;;;;;5033232;28;20494;-57
2021/03/10 03:27:26;;;;;;;2.37;1.83;;;21.30;29.70;;;;;;5033621;28;20379;-57
2021/03/10 03:30:00;;;;;;;2.47;1.95;;;21.30;29.70;;;;;;5034109;28;20421;-57
2021/03/10 03:32:27;;;;;;;2.20;1.80;;;21.30;29.80;;;;;;5033872;28;20798;-57
2021/03/10 03:34:56;;;;;;;2.30;2.03;;;21.30;29.80;;;;;;5033614;28;20395;-57
2021/03/10 03:37:23;;;;;;;2.00;1.80;;;21.30;29.80;;;;;;5033739;28;20383;-57
2021/03/10 03:39:49;;;;;;;2.15;1.70;;;21.20;29.70;;;;;;5033991;28;20465;-57
2021/03/10 03:42:16;;;;;;;2.33;1.90;;;21.20;29.70;;;;;;5033823;28;20494;-57
2021/03/10 03:44:42;;;;;;;2.22;1.80;;;21.20;29.80;;;;;;5033321;28;20403;-57
2021/03/10 03:47:07;;;;;;;2.08;1.88;;;21.20;29.80;;;;;;5033847;28;20739;-57
2021/03/10 03:49:33;;;;;;;2.13;1.90;;;21.20;29.80;;;;;;5032142;28;20406;-57
2021/03/10 03:51:59;;;;;;;2.03;1.80;;;21.20;29.80;;;;;;5033588;28;21022;-59
2021/03/10 03:54:25;;;;;;;2.28;1.75;;;21.20;29.80;;;;;;5033033;28;20395;-57
2021/03/10 03:56:50;;;;;;;2.50;1.90;;;21.20;29.70;;;;;;5033130;28;20406;-57
2021/03/10 03:59:17;;;;;;;2.30;1.70;;;21.20;29.70;;;;;;5033619;28;20390;-57
2021/03/10 04:01:42;;;;;;;1.95;1.70;;;21.20;29.80;;;;;;5033477;28;20387;-57
2021/03/10 04:04:08;;;;;;;2.22;1.83;;;21.20;29.70;;;;;;5033539;28;20399;-57
2021/03/10 04:06:33;;;;;;;1.93;1.73;;;21.20;29.80;;;;;;5033058;28;20379;-58
2021/03/10 04:08:59;;;;;;;2.30;1.80;;;21.20;29.70;;;;;;5033164;28;20383;-57
2021/03/10 04:11:25;;;;;;;2.10;1.70;;;21.10;30.00;;;;;;5033319;28;20780;-57
2021/03/10 04:13:50;;;;;;;2.08;1.70;;;21.00;30.00;;;;;;5033412;28;20486;-58
2021/03/10 04:16:16;;;;;;;3.10;2.20;;;21.00;30.20;;;;;;5033223;28;20885;-57
2021/03/10 04:18:42;;;;;;;3.22;2.13;;;21.00;30.40;;;;;;5032639;28;20394;-57
2021/03/10 04:21:08;;;;;;;2.60;2.10;;;21.00;30.90;;;;;;5032993;28;20795;-57
2021/03/10 04:23:34;;;;;;;2.35;2.15;;;21.10;30.90;;;;;;5021395;28;20416;-57
2021/03/10 04:26:00;;;;;;;2.25;1.95;;;21.10;30.90;;;;;;5032772;28;20771;-57
2021/03/10 04:28:26;;;;;;;2.30;2.10;;;21.20;31.40;;;;;;5032889;28;20402;-58
2021/03/10 04:30:52;;;;;;;2.67;2.10;;;21.20;32.20;;;;;;5032321;28;20424;-57
2021/03/10 04:33:18;;;;;;;3.20;2.00;;;21.20;30.80;;;;;;5033025;28;20867;-57
2021/03/10 04:35:44;;;;;;;2.70;2.00;;;21.20;32.20;;;;;;5032276;28;20395;-57
2021/03/10 04:38:09;;;;;;;4.82;2.22;;;21.30;32.70;;;;;;5032349;28;20384;-57
2021/03/10 04:40:35;;;;;;;3.60;1.90;;;21.30;33.50;;;;;;5032338;28;20399;-57
2021/03/10 04:43:01;;;;;;;3.05;1.80;;;21.40;32.90;;;;;;5032610;28;20486;-57
2021/03/10 04:45:26;;;;;;;3.73;2.03;;;21.40;32.60;;;;;;5032399;28;20477;-57
2021/03/10 04:47:52;;;;;;;2.72;2.17;;;21.30;31.70;;;;;;5032303;28;20452;-57
2021/03/10 04:50:18;;;;;;;2.10;1.60;;;21.30;32.10;;;;;;5032389;28;20430;-57
2021/03/10 04:52:44;;;;;;;3.28;2.08;;;21.40;32.90;;;;;;5032665;28;20450;-58
2021/03/10 04:55:10;;;;;;;2.72;2.20;;;21.40;32.50;;;;;;5032255;28;20914;-58
2021/03/10 04:57:39;;;;;;;3.08;2.00;;;21.40;32.80;;;;;;5031805;28;20414;-57
2021/03/10 05:00:08;;;;;;;4.40;2.03;;;21.40;32.80;;;;;;5031091;28;20403;-58
2021/03/10 05:02:35;;;;;;;2.70;1.80;;;21.50;33.40;;;;;;5030550;28;20388;-58
2021/03/10 05:05:02;;;;;;;2.85;2.08;;;21.50;33.50;;;;;;5032097;28;20395;-58
2021/03/10 05:07:28;;;;;;;3.33;1.90;;;21.50;33.10;;;;;;5030993;28;20379;-57
2021/03/10 05:09:53;;;;;;;4.03;2.00;;;21.50;32.90;;;;;;5031943;28;20407;-57
2021/03/10 05:12:19;;;;;;;3.20;1.90;;;21.40;32.90;;;;;;5032139;28;20771;-57
2021/03/10 05:14:44;;;;;;;2.70;2.00;;;21.40;32.20;;;;;;5031102;28;20732;-57
2021/03/10 05:17:10;;;;;;;5.40;2.28;;;21.40;32.00;;;;;;5032117;28;20399;-57
2021/03/10 05:19:36;;;;;;;3.20;2.20;;;21.30;31.60;;;;;;5030808;28;20445;-57
2021/03/10 05:22:02;;;;;;;4.78;2.13;;;21.20;31.70;;;;;;5031993;28;20445;-57
2021/03/10 05:24:27;;;;;;;3.75;2.00;;;21.20;31.20;;;;;;5032099;28;20470;-57
2021/03/10 05:26:53;;;;;;;3.73;2.10;;;21.20;31.20;;;;;;5030130;28;20904;-57
2021/03/10 05:29:19;;;;;;;3.08;2.08;;;21.20;31.10;;;;;;5031910;28;20418;-57
2021/03/10 05:31:44;;;;;;;3.23;1.83;;;21.20;31.00;;;;;;5022060;28;20411;-58
2021/03/10 05:34:10;;;;;;;4.70;1.90;;;21.10;30.80;;;;;;5020637;28;20390;-57
2021/03/10 05:36:37;;;;;;;3.50;2.00;;;21.10;30.80;;;;;;5019774;28;20389;-57
2021/03/10 05:39:03;;;;;;;4.72;2.10;;;21.20;30.90;;;;;;5019195;28;20406;-57
2021/03/10 05:41:30;;;;;;;3.60;2.35;;;21.20;31.00;;;;;;5019882;28;20925;-57
2021/03/10 05:43:58;;;;;;;4.20;2.57;;;21.20;30.60;;;;;;5020793;28;20922;-56
2021/03/10 05:46:23;;;;;;;6.88;2.50;;;21.20;30.50;;;;;;5026286;28;20422;-57
2021/03/10 05:48:53;;;;;;;4.97;2.57;;;21.20;30.90;;;;;;5031297;28;20433;-57
2021/03/10 05:51:19;;;;;;;6.72;2.55;;;21.20;31.40;;;;;;5031622;28;20430;-57
2021/03/10 05:53:46;;;;;;;3.40;2.20;;;21.20;31.60;;;;;;5024321;28;20505;-57
2021/03/10 05:56:13;;;;;;;5.60;2.73;;;21.20;31.40;;;;;;5027718;28;20393;-57
2021/03/10 05:58:38;;;;;;;5.37;2.40;;;21.10;31.60;;;;;;5018955;28;20399;-56
2021/03/10 06:01:04;;;;;;;4.15;2.30;;;21.10;31.80;;;;;;5025302;28;20398;-57
2021/03/10 06:03:30;;;;;;;4.20;2.40;;;21.20;31.60;;;;;;5018477;28;20430;-57
2021/03/10 06:06:00;;;;;;;4.45;2.20;;;21.10;31.40;;;;;;5010975;28;20393;-57
2021/03/10 06:08:28;;;;;;;5.28;2.20;;;21.20;31.20;;;;;;5011765;28;20393;-56
2021/03/10 06:10:53;;;;;;;5.15;2.20;;;21.20;31.00;;;;;;5010537;28;20420;-56
2021/03/10 06:13:22;;;;;;;4.30;1.95;;;21.20;30.90;;;;;;5010894;28;20747;-57
2021/03/10 06:15:49;;;;;;;3.95;2.30;;;21.10;30.80;;;;;;5011767;28;20393;-57
2021/03/10 06:18:30;;;;;;;5.72;2.15;;;21.10;30.60;;;;;;5012738;28;20873;-57
2021/03/10 06:21:10;;;;;;;5.05;2.15;;;21.10;30.60;;;;;;5015155;28;21288;-56
2021/03/10 06:24:02;;;;;;;3.87;2.10;;;21.20;30.60;;;;;;5015507;28;20474;-56
2021/03/10 06:26:33;;;;;;;3.05;2.10;;;21.10;30.50;;;;;;5015204;28;20737;-57
2021/03/10 06:29:00;;;;;;;2.73;2.20;;;21.10;30.40;;;;;;5015093;28;20391;-57
2021/03/10 06:31:29;;;;;;;3.63;1.98;;;21.10;30.40;;;;;;5014163;28;20413;-57
2021/03/10 06:34:09;;;;;;;3.92;2.08;;;21.10;30.40;;;;;;5015533;28;20387;-56
2021/03/10 06:36:37;;;;;;;2.85;1.90;;;21.10;30.40;;;;;;5015347;28;20472;-57
2021/03/10 06:39:05;;;;;;;3.75;2.20;;;21.10;30.40;;;;;;5015173;28;20464;-57
2021/03/10 06:41:37;;;;;;;2.63;1.88;;;21.00;30.30;;;;;;5015303;28;20385;-57
2021/03/10 06:44:16;;;;;;;2.15;1.90;;;21.10;30.40;;;;;;5015256;28;20404;-57
2021/03/10 06:46:54;;;;;;;2.47;1.90;;;21.00;30.90;;;;;;5014964;28;20373;-56
2021/03/10 06:49:21;;;;;;;2.15;1.90;;;21.00;30.30;;;;;;5015030;28;20412;-56
2021/03/10 06:51:54;;;;;;;4.60;2.42;;;21.10;30.30;;;;;;5015159;28;20904;-56
2021/03/10 06:54:21;;;;;;;2.50;1.90;;;21.00;30.30;;;;;;5013852;28;20396;-56
2021/03/10 06:57:04;;;;;;;3.13;2.00;;;21.00;30.40;;;;;;5014626;28;20385;-57
2021/03/10 06:59:40;;;;;;;3.20;2.13;;;20.90;30.50;;;;;;5014891;28;20400;-56
2021/03/10 07:02:12;;;;;;;3.50;2.20;;;20.90;30.50;;;;;;5014916;28;20400;-56
2021/03/10 07:04:41;;;;;;;3.42;2.17;;;20.90;30.70;;;;;;5014771;28;20388;-56
2021/03/10 07:07:07;;;;;;;2.65;2.08;;;20.80;30.50;;;;;;5014623;28;20396;-57
2021/03/10 07:09:34;;;;;;;3.03;2.22;;;20.80;30.90;;;;;;5014776;28;20492;-56
2021/03/10 07:12:00;;;;;;;3.10;2.10;;;20.80;31.00;;;;;;5015177;28;20427;-57
2021/03/10 07:14:28;;;;;;;2.20;2.00;;;20.80;30.70;;;;;;5014758;28;20744;-57
2021/03/10 07:16:54;;;;;;;3.00;2.20;;;20.80;30.70;;;;;;5014126;28;20434;-56
2021/03/10 07:19:19;;;;;;;3.47;2.30;;;20.80;30.90;;;;;;5014626;28;20407;-57
2021/03/10 07:22:01;;;;;;;3.80;2.57;;;20.80;31.10;;;;;;5014673;28;20745;-57
2021/03/10 07:24:41;;;;;;;2.42;2.20;;;20.80;30.90;;;;;;5010830;28;20726;-56
2021/03/10 07:27:09;;;;;;;2.90;2.38;;;20.90;31.00;;;;;;5013603;28;20397;-56
2021/03/10 07:29:37;;;;;;;4.05;2.50;;;20.90;30.90;;;;;;5013204;28;20421;-57
2021/03/10 07:32:05;;;;;;;3.50;2.50;;;20.90;30.70;;;;;;5014215;28;20396;-56
2021/03/10 07:34:32;;;;;;;4.10;2.70;;;20.90;30.80;;;;;;5014231;28;20892;-56
2021/03/10 07:36:57;;;;;;;4.00;2.55;;;21.00;30.90;;;;;;5013828;28;20385;-57
2021/03/10 07:39:32;;;;;;;4.25;2.60;;;21.00;30.70;;;;;;5014042;28;20400;-57
2021/03/10 07:42:11;;;;;;;3.60;2.60;;;21.00;30.70;;;;;;5014222;28;20385;-57
2021/03/10 07:44:37;;;;;;;4.15;2.67;;;21.00;30.70;;;;;;5014177;28;20385;-56
2021/03/10 07:47:15;;;;;;;3.67;2.77;;;21.10;30.70;;;;;;5013593;28;20435;-56
2021/03/10 07:49:42;;;;;;;3.58;2.63;;;21.00;30.60;;;;;;5013787;28;20417;-57
2021/03/10 07:52:09;;;;;;;3.45;2.47;;;21.00;30.60;;;;;;5014036;28;20395;-57
2021/03/10 07:54:36;;;;;;;3.97;2.58;;;21.00;30.70;;;;;;5013969;28;20440;-57
2021/03/10 07:57:12;;;;;;;2.93;2.50;;;21.00;30.80;;;;;;5013579;28;20468;-57
2021/03/10 07:59:39;;;;;;;3.38;2.60;;;21.00;30.70;;;;;;5013901;28;20392;-57
2021/03/10 08:02:09;;;;;;;3.72;2.58;;;20.90;30.70;;;;;;5013967;28;20393;-57
2021/03/10 08:04:38;;;;;;;3.60;2.70;;;20.90;30.70;;;;;;5013622;28;20393;-56
2021/03/10 08:07:03;;;;;;;3.33;2.55;;;21.00;30.70;;;;;;5013292;28;20749;-56
2021/03/10 08:09:30;;;;;;;3.30;2.60;;;21.00;30.70;;;;;;5013591;28;20488;-57
2021/03/10 08:12:09;;;;;;;2.80;2.40;;;20.90;30.60;;;;;;5013838;28;20439;-57
2021/03/10 08:14:38;;;;;;;2.97;2.40;;;21.00;30.70;;;;;;5013691;28;20406;-56
2021/03/10 08:17:04;;;;;;;3.10;2.70;;;20.90;30.60;;;;;;5013164;28;20417;-57
2021/03/10 08:19:30;;;;;;;2.85;2.50;;;20.90;30.60;;;;;;5013480;28;20397;-56
2021/03/10 08:21:56;;;;;;;2.80;2.42;;;21.00;30.60;;;;;;5013450;28;20407;-57
2021/03/10 08:24:23;;;;;;;3.47;2.60;;;21.00;30.60;;;;;;5013397;28;20389;-56
2021/03/10 08:26:55;;;;;;;3.75;2.70;;;20.90;30.50;;;;;;5012731;28;20483;-57
2021/03/10 08:29:21;;;;;;;4.20;2.70;;;21.00;30.60;;;;;;5013303;28;20413;-56
2021/03/10 08:31:56;;;;;;;3.38;2.60;;;20.90;30.50;;;;;;5013223;28;20408;-57
2021/03/10 08:34:38;;;;;;;2.95;2.35;;;20.90;30.50;;;;;;5013236;28;20394;-56
2021/03/10 08:37:08;;;;;;;2.95;2.60;;;21.00;30.50;;;;;;5012797;28;20511;-56
2021/03/10 08:39:40;;;;;;;2.83;2.50;;;20.90;30.50;;;;;;5012970;28;20393;-56
2021/03/10 08:42:06;;;;;;;2.85;2.55;;;20.90;30.40;;;;;;5012247;28;20927;-56
2021/03/10 08:44:39;;;;;;;3.33;2.67;;;20.90;30.40;;;;;;5013004;28;20397;-57
2021/03/10 08:47:17;;;;;;;3.22;2.55;;;20.90;30.40;;;;;;5012539;28;20396;-56
2021/03/10 08:49:44;;;;;;;2.78;2.20;;;20.90;30.40;;;;;;5012882;28;20496;-56
2021/03/10 08:52:15;;;;;;;2.90;2.50;;;20.90;30.30;;;;;;5012981;28;20381;-56
2021/03/10 08:54:48;;;;;;;2.92;2.38;;;20.90;30.30;;;;;;5013134;28;20454;-57
2021/03/10 08:57:15;;;;;;;2.75;2.35;;;20.90;30.30;;;;;;5012560;28;20396;-57
2021/03/10 08:59:41;;;;;;;3.13;2.40;;;20.90;30.20;;;;;;5012272;28;20727;-57
2021/03/10 09:02:07;;;;;;;2.67;2.30;;;21.00;30.10;;;;;;5012633;28;20438;-57
2021/03/10 09:04:33;;;;;;;2.67;2.10;;;21.00;30.10;;;;;;5012637;28;20385;-56
2021/03/10 09:07:00;;;;;;;2.85;2.50;;;21.00;30.00;;;;;;5012176;28;20395;-57
2021/03/10 09:09:27;;;;;;;3.28;2.40;;;21.00;30.10;;;;;;5012525;28;20413;-57
2021/03/10 09:11:53;;;;;;;2.75;2.35;;;21.00;30.00;;;;;;5012714;28;20382;-56
2021/03/10 09:14:21;;;;;;;3.20;2.15;;;21.00;30.10;;;;;;5012574;28;20403;-57
2021/03/10 09:16:57;;;;;;;3.20;2.40;;;21.00;30.00;;;;;;5027445;28;20409;-57
2021/03/10 09:19:36;;;;;;;2.40;2.20;;;21.00;30.10;;;;;;5011024;28;20431;-57
2021/03/10 09:22:19;;;;;;;2.97;2.20;;;21.00;30.00;;;;;;5012165;28;20935;-57
2021/03/10 09:25:09;;;;;;;2.47;2.10;;;21.00;30.00;;;;;;5012134;28;20393;-57
2021/03/10 09:27:34;;;;;;;3.00;2.30;;;21.00;30.00;;;;;;5012277;28;20451;-57
2021/03/10 09:30:09;;;;;;;2.87;2.27;;;21.00;30.00;;;;;;5012143;28;20904;-57
2021/03/10 09:32:46;;;;;;;2.45;2.10;;;20.90;30.00;;;;;;5012229;28;20408;-56
2021/03/10 09:35:34;;;;;;;2.70;2.10;;;20.90;30.00;;;;;;5011999;28;20385;-57
2021/03/10 09:38:05;;;;;;;2.65;2.17;;;20.90;30.00;;;;;;5012204;28;20428;-57
2021/03/10 09:40:40;;;;;;;3.00;2.33;;;20.90;30.00;;;;;;5012094;28;20392;-57
2021/03/10 09:43:09;;;;;;;2.60;2.22;;;20.90;30.00;;;;;;5011690;28;20447;-56
2021/03/10 09:45:36;;;;;;;2.70;2.10;;;20.90;30.00;;;;;;5012122;28;20381;-57
2021/03/10 09:48:07;;;;;;;2.58;2.35;;;20.90;30.00;;;;;;5012041;28;20408;-56
2021/03/10 09:50:49;;;;;;;2.72;2.28;;;20.90;30.30;;;;;;5011914;28;20853;-57
2021/03/10 09:53:22;;;;;;;2.80;2.20;;;20.90;30.00;;;;;;5011396;28;20388;-57
2021/03/10 09:55:49;;;;;;;3.00;2.38;;;20.90;30.00;;;;;;5011961;28;20447;-57
2021/03/10 09:58:14;;;;;;;2.42;2.22;;;20.90;30.00;;;;;;5012137;28;20439;-56
2021/03/10 10:00:42;;;;;;;2.80;2.38;;;20.90;30.30;;;;;;5011785;28;20393;-56
2021/03/10 10:03:08;;;;;;;3.03;2.40;;;20.90;30.00;;;;;;5011554;28;20888;-56
2021/03/10 10:05:37;;;;;;;2.95;2.30;;;20.90;30.00;;;;;;5011764;28;20392;-56
2021/03/10 10:08:05;;;;;;;2.70;2.30;;;20.80;30.00;;;;;;5011843;28;20393;-56
2021/03/10 10:10:32;;;;;;;3.30;2.65;;;20.80;30.00;;;;;;5010418;28;20514;-56
2021/03/10 10:12:58;;;;;;;3.17;2.50;;;20.90;30.00;;;;;;5011424;28;20874;-57
2021/03/10 10:15:26;;;;;;;3.22;2.47;;;20.90;30.00;;;;;;5011699;28;20400;-56
2021/03/10 10:17:54;;;;;;;3.20;2.60;;;20.90;30.00;;;;;;5011734;28;20396;-56
2021/03/10 10:20:25;;;;;;;2.88;2.47;;;20.90;30.00;;;;;;5011634;28;20393;-57
2021/03/10 10:22:51;;;;;;;3.17;2.45;;;20.80;30.50;;;;;;5011461;28;20412;-56
2021/03/10 10:25:18;;;;;;;3.15;2.55;;;20.80;30.00;;;;;;5011565;28;20401;-57
2021/03/10 10:27:45;;;;;;;3.47;2.95;;;20.80;30.00;;;;;;5011163;28;20541;-56
2021/03/10 10:30:14;;;;;;;3.80;3.10;;;20.80;30.00;;;;;;5010726;28;20503;-57
2021/03/10 10:32:44;;;;;;;3.72;2.92;;;20.80;30.00;;;;;;5011381;28;20389;-56
2021/03/10 10:35:11;;;;;;;3.20;2.83;;;20.80;30.00;;;;;;5011025;28;20408;-57
2021/03/10 10:37:37;;;;;;;3.53;2.75;;;20.80;30.00;;;;;;5011525;28;20380;-56
2021/03/10 10:40:18;;;;;;;2.90;2.60;;;20.80;30.00;;;;;;5011471;28;20397;-57
2021/03/10 10:42:44;;;;;;;4.00;2.80;;;20.80;30.00;;;;;;5011624;28;20850;-57
2021/03/10 10:45:11;;;;;;;3.22;2.80;;;20.80;30.00;;;;;;5011025;28;20420;-56
2021/03/10 10:47:37;;;;;;;2.80;2.50;;;20.80;30.00;;;;;;5011360;28;20396;-56
2021/03/10 10:50:06;;;;;;;4.03;2.97;;;20.80;30.00;;;;;;5011298;28;20474;-56
2021/03/10 10:52:32;;;;;;;3.40;2.90;;;20.80;30.00;;;;;;5011212;28;20428;-57
2021/03/10 10:54:57;;;;;;;3.42;2.95;;;20.80;30.00;;;;;;5010819;28;20451;-56
2021/03/10 10:57:23;;;;;;;3.10;2.60;;;20.70;30.00;;;;;;5011309;28;20385;-56
2021/03/10 10:59:49;;;;;;;3.40;2.70;;;20.80;30.00;;;;;;5011332;28;20442;-57
2021/03/10 11:02:14;;;;;;;3.90;2.77;;;20.80;30.10;;;;;;5011330;28;20455;-56
2021/03/10 11:04:40;;;;;;;3.53;3.03;;;20.80;30.10;;;;;;5011470;28;20484;-56
2021/03/10 11:07:06;;;;;;;3.65;2.95;;;20.70;30.00;;;;;;5014474;28;20381;-57
2021/03/10 11:09:33;;;;;;;3.40;2.83;;;20.70;30.00;;;;;;5014741;28;20954;-56
2021/03/10 11:11:59;;;;;;;3.95;3.00;;;20.70;30.00;;;;;;5015051;28;20431;-56
2021/03/10 11:14:25;;;;;;;3.85;3.10;;;20.70;30.00;;;;;;5014756;28;20391;-56
2021/03/10 11:16:56;;;;;;;3.40;3.05;;;20.70;30.10;;;;;;5014517;28;20401;-57
2021/03/10 11:19:21;;;;;;;3.40;2.95;;;20.70;30.00;;;;;;5014658;28;20389;-57
2021/03/10 11:21:47;;;;;;;3.87;3.10;;;20.70;30.10;;;;;;5014684;28;20385;-56
2021/03/10 11:24:13;;;;;;;3.78;3.05;;;20.70;30.10;;;;;;5014543;28;20447;-57
2021/03/10 11:26:39;;;;;;;3.97;3.08;;;20.70;30.10;;;;;;5014492;28;20389;-57
2021/03/10 11:29:04;;;;;;;4.00;3.03;;;20.70;30.00;;;;;;5013691;28;20393;-56
2021/03/10 11:31:30;;;;;;;3.53;2.92;;;20.70;30.10;;;;;;5014197;28;20419;-57
2021/03/10 11:33:55;;;;;;;4.47;3.30;;;20.70;30.10;;;;;;5014363;28;20392;-57
2021/03/10 11:36:21;;;;;;;4.07;3.30;;;20.70;30.00;;;;;;5014211;28;20389;-56
2021/03/10 11:38:47;;;;;;;3.87;3.10;;;20.70;30.00;;;;;;5014256;28;20389;-57
2021/03/10 11:41:13;;;;;;;4.28;3.22;;;20.70;30.00;;;;;;5013791;28;20943;-56
2021/03/10 11:43:38;;;;;;;4.55;3.60;;;20.70;30.10;;;;;;5013567;28;20392;-57
2021/03/10 11:46:04;;;;;;;4.67;3.33;;;20.70;30.00;;;;;;5013732;28;20392;-57
2021/03/10 11:48:29;;;;;;;4.90;3.50;;;20.60;30.00;;;;;;5013930;28;20392;-56
2021/03/10 11:50:55;;;;;;;4.60;3.43;;;20.70;30.00;;;;;;5013731;28;20511;-57
2021/03/10 11:53:21;;;;;;;4.50;3.53;;;20.70;30.00;;;;;;5013683;28;20447;-56
2021/03/10 11:55:48;;;;;;;4.60;3.50;;;20.70;30.00;;;;;;5013965;28;20388;-56
2021/03/10 11:58:14;;;;;;;4.53;3.58;;;20.70;30.60;;;;;;5013719;28;20419;-57
2021/03/10 12:00:41;;;;;;;4.50;3.17;;;20.70;30.00;;;;;;5013843;28;20520;-56
2021/03/10 12:03:06;;;;;;;4.88;3.47;;;20.70;30.00;;;;;;5013333;28;20400;-56
2021/03/10 12:05:32;;;;;;;5.03;3.55;;;20.70;30.00;;;;;;5013731;28;20401;-56
2021/03/10 12:07:58;;;;;;;5.13;3.72;;;20.70;30.00;;;;;;5013776;28;20388;-56
2021/03/10 12:10:24;;;;;;;5.47;3.93;;;20.70;30.00;;;;;;5013421;28;20412;-56
2021/03/10 12:12:50;;;;;;;5.85;4.00;;;20.70;30.00;;;;;;5013683;28;20756;-56
2021/03/10 12:15:16;;;;;;;4.65;3.33;;;20.70;30.00;;;;;;5013230;28;20450;-56
2021/03/10 12:17:42;;;;;;;4.95;3.80;;;20.70;30.00;;;;;;5013529;28;20451;-57
2021/03/10 12:20:08;;;;;;;4.95;3.40;;;20.70;30.00;;;;;;5013555;28;20792;-57
2021/03/10 12:22:34;;;;;;;5.20;3.90;;;20.70;30.00;;;;;;5013394;28;20935;-57
2021/03/10 12:25:00;;;;;;;4.75;3.40;;;20.70;30.00;;;;;;5012917;28;20401;-57
2021/03/10 12:27:26;;;;;;;5.25;3.75;;;20.70;30.00;;;;;;5013059;28;20865;-57
2021/03/10 12:30:01;;;;;;;4.93;3.47;;;20.70;30.00;;;;;;5013207;28;20922;-56
2021/03/10 12:32:27;;;;;;;5.55;3.63;;;20.70;30.00;;;;;;5013273;28;20407;-57
2021/03/10 12:34:55;;;;;;;4.72;3.65;;;20.70;30.00;;;;;;5013110;28;20476;-57
2021/03/10 12:37:21;;;;;;;5.15;3.40;;;20.70;30.00;;;;;;5012910;28;20762;-56
2021/03/10 12:39:47;;;;;;;4.97;3.63;;;20.70;30.00;;;;;;5013170;28;20746;-56
2021/03/10 12:42:13;;;;;;;4.75;3.50;;;20.70;30.00;;;;;;5013147;28;20393;-56
2021/03/10 12:44:42;;;;;;;4.78;3.53;;;20.70;30.00;;;;;;5012976;28;20385;-56
2021/03/10 12:47:09;;;;;;;5.00;3.50;;;20.60;30.00;;;;;;5012476;28;20389;-57
2021/03/10 12:49:35;;;;;;;4.38;3.10;;;20.70;30.00;;;;;;5012861;28;20417;-57
2021/03/10 12:52:01;;;;;;;4.43;3.10;;;20.70;30.00;;;;;;5012987;28;20495;-56
2021/03/10 12:54:27;;;;;;;4.82;3.22;;;20.60;30.00;;;;;;5012844;28;20464;-56